createdAt,value
2018-09-03T00:00:17.509Z,74.94
2018-09-03T00:01:21.849Z,75.39
2018-09-03T00:02:24.869Z,75.54
2018-09-03T00:03:27.730Z,75.20
2018-09-03T00:04:30.583Z,75.20
2018-09-03T00:05:33.747Z,75.32
2018-09-03T00:06:36.616Z,75.36
2018-09-03T00:07:39.485Z,75.00
2018-09-03T00:08:42.352Z,75.15
2018-09-03T00:09:49.028Z,75.49
2018-09-03T00:10:51.897Z,74.83
2018-09-03T00:11:55.956Z,74.98
2018-09-03T00:12:58.937Z,75.31
2018-09-03T00:14:01.818Z,75.03
2018-09-03T00:15:04.705Z,75.58
2018-09-03T00:16:07.831Z,74.87
2018-09-03T00:17:11.111Z,75.18
2018-09-03T00:18:14.267Z,74.78
2018-09-03T00:19:17.150Z,74.72
2018-09-03T00:20:20.055Z,74.53
2018-09-03T00:21:22.929Z,75.10
2018-09-03T00:22:25.809Z,75.15
2018-09-03T00:23:28.708Z,75.34
2018-09-03T00:24:31.957Z,74.43
2018-09-03T00:25:34.832Z,74.54
2018-09-03T00:26:37.716Z,75.34
2018-09-03T00:27:40.721Z,74.52
2018-09-03T00:28:44.681Z,75.16
2018-09-03T00:29:48.153Z,74.83
2018-09-03T00:30:51.509Z,74.90
2018-09-03T00:31:59.333Z,74.23
2018-09-03T00:33:08.077Z,74.65
2018-09-03T00:34:15.845Z,74.84
2018-09-03T00:35:24.110Z,74.36
2018-09-03T00:36:32.391Z,74.25
2018-09-03T00:37:40.438Z,74.15
2018-09-03T00:38:48.287Z,74.84
2018-09-03T00:39:56.068Z,74.10
2018-09-03T00:41:03.824Z,74.82
2018-09-03T00:42:11.938Z,74.75
2018-09-03T00:43:19.622Z,74.21
2018-09-03T00:44:27.461Z,74.93
2018-09-03T00:45:35.230Z,73.86
2018-09-03T00:46:42.993Z,74.37
2018-09-03T00:47:45.893Z,74.73
2018-09-03T00:48:50.956Z,74.66
2018-09-03T00:49:54.701Z,74.89
2018-09-03T00:50:57.945Z,74.98
2018-09-03T00:52:00.845Z,74.40
2018-09-03T00:53:03.887Z,74.57
2018-09-03T00:54:06.780Z,74.64
2018-09-03T00:55:10.498Z,74.68
2018-09-03T00:56:13.371Z,75.46
2018-09-03T00:57:16.269Z,75.40
2018-09-03T00:58:19.241Z,75.64
2018-09-03T00:59:22.103Z,75.08
2018-09-03T01:00:24.954Z,74.40
2018-09-03T01:01:28.167Z,74.57
2018-09-03T01:02:31.077Z,75.40
2018-09-03T01:03:34.801Z,75.41
2018-09-03T01:04:37.716Z,75.55
2018-09-03T01:05:40.619Z,75.31
2018-09-03T01:06:43.520Z,75.63
2018-09-03T01:07:46.664Z,75.01
2018-09-03T01:08:50.554Z,75.54
2018-09-03T01:09:53.416Z,75.54
2018-09-03T01:10:56.268Z,75.42
2018-09-03T01:11:59.139Z,75.42
2018-09-03T01:13:02.067Z,75.32
2018-09-03T01:14:05.184Z,75.29
2018-09-03T01:15:08.294Z,75.54
2018-09-03T01:16:11.179Z,75.41
2018-09-03T01:17:14.049Z,74.68
2018-09-03T01:18:17.490Z,75.26
2018-09-03T01:19:20.376Z,75.35
2018-09-03T01:20:24.180Z,75.70
2018-09-03T01:21:27.541Z,76.02
2018-09-03T01:22:31.297Z,75.49
2018-09-03T01:23:34.155Z,75.35
2018-09-03T01:24:37.066Z,75.73
2018-09-03T01:25:40.467Z,75.29
2018-09-03T01:26:43.624Z,75.49
2018-09-03T01:27:46.476Z,75.45
2018-09-03T01:28:49.341Z,75.61
2018-09-03T01:29:52.200Z,76.05
2018-09-03T01:30:55.321Z,75.32
2018-09-03T01:31:58.202Z,75.34
2018-09-03T01:33:01.383Z,76.04
2018-09-03T01:34:04.262Z,75.79
2018-09-03T01:35:07.141Z,75.54
2018-09-03T01:36:11.735Z,76.41
2018-09-03T01:37:15.567Z,76.51
2018-09-03T01:38:19.244Z,76.37
2018-09-03T01:39:22.460Z,76.06
2018-09-03T01:40:26.044Z,76.13
2018-09-03T01:41:29.424Z,75.46
2018-09-03T01:42:32.455Z,75.42
2018-09-03T01:43:35.324Z,75.47
2018-09-03T01:44:38.214Z,76.11
2018-09-03T01:45:41.640Z,75.93
2018-09-03T01:46:44.530Z,76.07
2018-09-03T01:47:47.520Z,76.23
2018-09-03T01:48:50.400Z,75.15
2018-09-03T01:49:53.281Z,75.48
2018-09-03T01:50:56.174Z,75.21
2018-09-03T01:52:00.458Z,75.45
2018-09-03T01:53:03.299Z,75.30
2018-09-03T01:54:06.148Z,75.56
2018-09-03T01:55:09.044Z,76.07
2018-09-03T01:56:11.936Z,75.44
2018-09-03T01:57:14.818Z,75.90
2018-09-03T01:58:17.972Z,75.81
2018-09-03T01:59:20.816Z,75.77
2018-09-03T02:00:23.724Z,75.76
2018-09-03T02:01:26.594Z,75.67
2018-09-03T02:02:29.446Z,75.89
2018-09-03T02:03:32.439Z,75.84
2018-09-03T02:04:35.583Z,75.65
2018-09-03T02:05:38.812Z,76.05
2018-09-03T02:06:43.132Z,76.18
2018-09-03T02:07:46.034Z,76.26
2018-09-03T02:08:48.903Z,76.04
2018-09-03T02:09:51.755Z,75.30
2018-09-03T02:10:55.826Z,75.55
2018-09-03T02:11:58.774Z,76.06
2018-09-03T02:13:02.417Z,75.73
2018-09-03T02:14:05.935Z,75.18
2018-09-03T02:15:08.828Z,75.24
2018-09-03T02:16:12.866Z,75.13
2018-09-03T02:17:16.491Z,75.57
2018-09-03T02:18:19.377Z,75.80
2018-09-03T02:19:22.227Z,75.51
2018-09-03T02:20:25.091Z,75.37
2018-09-03T02:21:28.009Z,75.76
2018-09-03T02:22:31.903Z,75.45
2018-09-03T02:23:35.051Z,75.88
2018-09-03T02:24:38.281Z,75.69
2018-09-03T02:25:41.183Z,75.67
2018-09-03T02:26:44.081Z,75.78
2018-09-03T02:27:46.955Z,76.06
2018-09-03T02:28:49.841Z,75.77
2018-09-03T02:29:52.989Z,75.48
2018-09-03T02:30:55.886Z,75.72
2018-09-03T02:31:58.790Z,76.11
2018-09-03T02:33:01.734Z,75.75
2018-09-03T02:34:05.302Z,75.65
2018-09-03T02:35:09.195Z,75.92
2018-09-03T02:36:12.356Z,76.33
2018-09-03T02:37:15.210Z,75.71
2018-09-03T02:38:18.065Z,76.22
2018-09-03T02:39:20.973Z,75.97
2018-09-03T02:40:23.832Z,75.95
2018-09-03T02:41:26.666Z,76.04
2018-09-03T02:42:29.880Z,75.68
2018-09-03T02:43:32.751Z,75.89
2018-09-03T02:44:35.700Z,75.76
2018-09-03T02:45:39.295Z,75.83
2018-09-03T02:46:42.178Z,75.28
2018-09-03T02:47:45.078Z,76.04
2018-09-03T02:48:48.278Z,76.07
2018-09-03T02:49:51.161Z,75.37
2018-09-03T02:50:54.057Z,75.43
2018-09-03T02:51:56.906Z,75.99
2018-09-03T02:52:59.870Z,75.84
2018-09-03T02:54:02.818Z,75.77
2018-09-03T02:55:05.962Z,75.87
2018-09-03T02:56:08.830Z,75.93
2018-09-03T02:57:11.779Z,76.17
2018-09-03T02:58:14.679Z,75.72
2018-09-03T02:59:17.529Z,75.54
2018-09-03T03:00:22.497Z,75.38
2018-09-03T03:01:25.678Z,75.86
2018-09-03T03:02:28.617Z,75.20
2018-09-03T03:03:31.557Z,76.16
2018-09-03T03:04:34.986Z,76.23
2018-09-03T03:05:38.798Z,75.73
2018-09-03T03:06:42.523Z,76.03
2018-09-03T03:07:45.707Z,76.49
2018-09-03T03:08:52.480Z,76.88
2018-09-03T03:09:55.779Z,76.68
2018-09-03T03:10:58.644Z,76.14
2018-09-03T03:12:01.543Z,76.63
2018-09-03T03:13:05.316Z,75.97
2018-09-03T03:14:08.692Z,76.98
2018-09-03T03:15:11.599Z,76.15
2018-09-03T03:16:14.542Z,76.23
2018-09-03T03:17:17.450Z,76.27
2018-09-03T03:18:22.523Z,76.62
2018-09-03T03:19:25.390Z,76.08
2018-09-03T03:20:30.591Z,76.45
2018-09-03T03:21:33.689Z,76.68
2018-09-03T03:22:36.912Z,76.81
2018-09-03T03:23:39.815Z,76.05
2018-09-03T03:24:42.690Z,76.37
2018-09-03T03:25:45.566Z,76.06
2018-09-03T03:26:48.760Z,76.65
2018-09-03T03:27:51.715Z,76.08
2018-09-03T03:28:54.605Z,76.57
2018-09-03T03:29:57.595Z,76.07
2018-09-03T03:31:00.523Z,76.94
2018-09-03T03:32:03.423Z,76.48
2018-09-03T03:33:06.541Z,76.04
2018-09-03T03:34:11.080Z,76.02
2018-09-03T03:35:15.655Z,76.36
2018-09-03T03:36:18.521Z,76.03
2018-09-03T03:37:21.360Z,76.79
2018-09-03T03:38:24.221Z,75.69
2018-09-03T03:39:27.408Z,76.49
2018-09-03T03:40:30.267Z,76.18
2018-09-03T03:41:33.131Z,75.88
2018-09-03T03:42:36.011Z,76.36
2018-09-03T03:43:39.179Z,76.31
2018-09-03T03:44:42.041Z,76.34
2018-09-03T03:45:45.237Z,75.93
2018-09-03T03:46:48.082Z,75.70
2018-09-03T03:47:56.355Z,75.85
2018-09-03T03:49:03.266Z,76.22
2018-09-03T03:50:07.181Z,76.29
2018-09-03T03:51:10.013Z,76.50
2018-09-03T03:52:13.178Z,76.19
2018-09-03T03:53:16.089Z,75.89
2018-09-03T03:54:19.082Z,76.39
2018-09-03T03:55:21.988Z,76.89
2018-09-03T03:56:24.965Z,76.46
2018-09-03T03:57:28.074Z,76.39
2018-09-03T03:58:32.059Z,76.60
2018-09-03T03:59:34.919Z,77.17
2018-09-03T04:00:37.797Z,77.20
2018-09-03T04:01:40.764Z,76.77
2018-09-03T04:02:43.655Z,77.34
2018-09-03T04:03:47.185Z,77.20
2018-09-03T04:04:50.892Z,77.10
2018-09-03T04:05:53.728Z,76.65
2018-09-03T04:06:57.204Z,76.72
2018-09-03T04:08:00.085Z,76.95
2018-09-03T04:09:03.015Z,77.57
2018-09-03T04:10:06.173Z,77.50
2018-09-03T04:11:09.051Z,76.75
2018-09-03T04:12:11.940Z,77.16
2018-09-03T04:13:14.806Z,76.89
2018-09-03T04:14:18.712Z,77.37
2018-09-03T04:15:21.622Z,76.72
2018-09-03T04:16:25.040Z,76.94
2018-09-03T04:17:29.495Z,76.21
2018-09-03T04:18:32.381Z,77.01
2018-09-03T04:19:35.250Z,76.76
2018-09-03T04:20:38.117Z,77.13
2018-09-03T04:21:41.007Z,77.05
2018-09-03T04:22:44.242Z,76.51
2018-09-03T04:23:47.071Z,76.81
2018-09-03T04:24:49.982Z,77.00
2018-09-03T04:25:53.120Z,76.81
2018-09-03T04:26:55.977Z,76.08
2018-09-03T04:27:58.937Z,76.75
2018-09-03T04:29:02.350Z,77.06
2018-09-03T04:30:05.252Z,77.00
2018-09-03T04:31:08.127Z,76.51
2018-09-03T04:32:11.804Z,76.23
2018-09-03T04:33:14.805Z,76.45
2018-09-03T04:34:17.987Z,76.81
2018-09-03T04:35:20.901Z,76.51
2018-09-03T04:36:23.831Z,77.10
2018-09-03T04:37:26.707Z,77.43
2018-09-03T04:38:29.578Z,77.44
2018-09-03T04:39:32.455Z,77.04
2018-09-03T04:40:36.302Z,76.41
2018-09-03T04:41:39.293Z,76.97
2018-09-03T04:42:48.807Z,77.21
2018-09-03T04:43:51.713Z,76.92
2018-09-03T04:44:55.165Z,76.78
2018-09-03T04:45:58.034Z,76.93
2018-09-03T04:47:01.811Z,76.57
2018-09-03T04:48:04.757Z,77.40
2018-09-03T04:49:07.746Z,76.82
2018-09-03T04:50:10.665Z,77.18
2018-09-03T04:51:13.610Z,76.87
2018-09-03T04:52:16.495Z,76.93
2018-09-03T04:53:19.714Z,76.97
2018-09-03T04:54:23.295Z,77.54
2018-09-03T04:55:26.797Z,77.39
2018-09-03T04:56:29.908Z,77.82
2018-09-03T04:57:34.088Z,77.10
2018-09-03T04:58:36.987Z,77.20
2018-09-03T04:59:40.712Z,77.47
2018-09-03T05:00:43.658Z,77.26
2018-09-03T05:01:46.540Z,77.27
2018-09-03T05:02:49.478Z,77.75
2018-09-03T05:03:54.058Z,77.75
2018-09-03T05:04:57.845Z,78.09
2018-09-03T05:06:01.333Z,78.00
2018-09-03T05:07:04.204Z,78.28
2018-09-03T05:08:07.611Z,77.42
2018-09-03T05:09:10.488Z,77.45
2018-09-03T05:10:14.342Z,78.03
2018-09-03T05:11:17.326Z,78.44
2018-09-03T05:12:20.482Z,78.66
2018-09-03T05:13:24.408Z,78.06
2018-09-03T05:14:28.159Z,78.62
2018-09-03T05:15:32.024Z,78.66
2018-09-03T05:16:35.904Z,79.18
2018-09-03T05:17:39.361Z,79.49
2018-09-03T05:18:42.502Z,79.32
2018-09-03T05:19:45.405Z,79.23
2018-09-03T05:20:48.406Z,79.35
2018-09-03T05:21:51.317Z,79.34
2018-09-03T05:22:54.236Z,79.00
2018-09-03T05:23:57.149Z,79.57
2018-09-03T05:25:00.300Z,79.00
2018-09-03T05:26:03.337Z,79.08
2018-09-03T05:27:06.441Z,79.58
2018-09-03T05:28:09.315Z,78.85
2018-09-03T05:29:12.250Z,79.30
2018-09-03T05:30:15.237Z,79.56
2018-09-03T05:33:33.867Z,79.67
2018-09-03T05:34:38.099Z,79.71
2018-09-03T05:35:41.013Z,79.50
2018-09-03T05:36:43.915Z,80.27
2018-09-03T05:37:46.802Z,80.47
2018-09-03T05:38:50.045Z,80.32
2018-09-03T05:39:53.182Z,79.87
2018-09-03T05:40:56.083Z,79.21
2018-09-03T05:41:59.085Z,79.67
2018-09-03T05:43:02.122Z,79.42
2018-09-03T05:44:05.175Z,79.36
2018-09-03T05:45:08.535Z,79.64
2018-09-03T05:46:11.440Z,80.51
2018-09-03T05:47:14.517Z,80.24
2018-09-03T05:48:17.409Z,81.15
2018-09-03T05:49:20.274Z,80.84
2018-09-03T05:50:26.187Z,81.00
2018-09-03T05:51:29.471Z,81.24
2018-09-03T05:52:32.479Z,81.48
2018-09-03T05:53:35.364Z,80.95
2018-09-03T05:54:38.327Z,81.83
2018-09-03T05:55:42.051Z,81.30
2018-09-03T05:56:44.893Z,80.71
2018-09-03T05:57:48.276Z,81.13
2018-09-03T05:58:51.287Z,80.94
2018-09-03T05:59:54.181Z,81.16
2018-09-03T06:00:58.703Z,80.80
2018-09-03T06:02:01.646Z,79.93
2018-09-03T06:03:05.406Z,80.35
2018-09-03T06:04:08.859Z,79.49
2018-09-03T06:05:12.103Z,79.36
2018-09-03T06:06:15.563Z,79.62
2018-09-03T06:07:18.494Z,79.20
2018-09-03T06:08:21.516Z,79.31
2018-09-03T06:09:24.380Z,79.35
2018-09-03T06:10:27.721Z,79.20
2018-09-03T06:11:30.603Z,78.77
2018-09-03T06:12:33.640Z,79.41
2018-09-03T06:13:36.555Z,79.21
2018-09-03T06:14:39.492Z,79.48
2018-09-03T06:15:43.354Z,79.82
2018-09-03T06:16:47.553Z,80.21
2018-09-03T06:17:50.619Z,80.66
2018-09-03T06:18:54.703Z,81.10
2018-09-03T06:19:59.267Z,79.82
2018-09-03T06:21:02.119Z,80.65
2018-09-03T06:22:04.992Z,80.69
2018-09-03T06:23:11.886Z,79.83
2018-09-03T06:24:14.755Z,79.30
2018-09-03T06:25:18.613Z,79.48
2018-09-03T06:26:23.349Z,79.00
2018-09-03T06:27:26.343Z,78.93
2018-09-03T06:28:29.349Z,78.62
2018-09-03T06:29:34.381Z,78.90
2018-09-03T06:30:38.462Z,79.66
2018-09-03T06:31:42.656Z,80.08
2018-09-03T06:32:46.203Z,79.48
2018-09-03T06:33:49.156Z,79.31
2018-09-03T06:34:52.654Z,79.66
2018-09-03T06:35:56.301Z,79.40
2018-09-03T06:36:59.249Z,79.12
2018-09-03T06:38:03.114Z,78.70
2018-09-03T06:39:07.125Z,78.60
2018-09-03T06:40:10.018Z,78.93
2018-09-03T06:41:13.839Z,78.48
2018-09-03T06:42:17.111Z,78.00
2018-09-03T06:43:20.058Z,77.92
2018-09-03T06:44:23.096Z,77.83
2018-09-03T06:45:26.011Z,77.66
2018-09-03T06:46:29.425Z,78.22
2018-09-03T06:47:32.371Z,77.47
2018-09-03T06:48:35.532Z,78.10
2018-09-03T06:49:38.676Z,78.23
2018-09-03T06:50:41.716Z,78.30
2018-09-03T06:51:45.120Z,78.00
2018-09-03T06:52:48.960Z,77.77
2018-09-03T06:53:52.253Z,76.86
2018-09-03T06:54:56.492Z,77.21
2018-09-03T06:55:59.641Z,77.17
2018-09-03T06:57:02.541Z,77.51
2018-09-03T06:58:05.716Z,77.88
2018-09-03T06:59:08.690Z,77.08
2018-09-03T07:00:13.640Z,77.25
2018-09-03T07:01:17.579Z,77.69
2018-09-03T07:02:20.640Z,78.64
2018-09-03T07:03:23.504Z,78.14
2018-09-03T07:04:28.047Z,78.32
2018-09-03T07:05:32.639Z,77.21
2018-09-03T07:06:35.665Z,78.06
2018-09-03T07:07:39.159Z,77.55
2018-09-03T07:08:42.287Z,77.85
2018-09-03T07:09:47.296Z,77.77
2018-09-03T07:10:50.151Z,76.68
2018-09-03T07:11:54.249Z,77.59
2018-09-03T07:12:57.925Z,77.59
2018-09-03T07:14:02.104Z,77.34
2018-09-03T07:15:05.032Z,78.07
2018-09-03T07:16:07.918Z,78.30
2018-09-03T07:17:13.916Z,77.71
2018-09-03T07:18:19.715Z,78.02
2018-09-03T07:19:22.593Z,78.15
2018-09-03T07:20:27.311Z,77.77
2018-09-03T07:21:33.203Z,78.11
2018-09-03T07:22:36.093Z,77.43
2018-09-03T07:23:40.661Z,77.06
2018-09-03T07:24:44.260Z,77.19
2018-09-03T07:25:48.606Z,77.90
2018-09-03T07:26:53.670Z,77.12
2018-09-03T07:27:56.538Z,77.42
2018-09-03T07:28:59.432Z,76.56
2018-09-03T07:30:02.360Z,75.71
2018-09-03T07:31:06.820Z,76.04
2018-09-03T07:32:11.129Z,76.13
2018-09-03T07:33:15.440Z,76.34
2018-09-03T07:34:19.491Z,76.09
2018-09-03T07:35:23.656Z,76.75
2018-09-03T07:36:26.524Z,77.06
2018-09-03T07:37:29.423Z,77.13
2018-09-03T07:38:32.622Z,77.51
2018-09-03T07:39:36.151Z,77.73
2018-09-03T07:40:39.205Z,76.06
2018-09-03T07:41:43.251Z,76.67
2018-09-03T07:42:49.258Z,77.50
2018-09-03T07:43:52.815Z,77.55
2018-09-03T07:44:56.829Z,76.95
2018-09-03T07:45:59.871Z,77.64
2018-09-03T07:47:03.389Z,77.07
2018-09-03T07:48:10.395Z,77.09
2018-09-03T07:49:17.913Z,77.59
2018-09-03T07:50:20.778Z,76.21
2018-09-03T07:51:23.970Z,76.74
2018-09-03T07:52:26.863Z,77.65
2018-09-03T07:53:30.700Z,77.95
2018-09-03T07:54:34.292Z,77.00
2018-09-03T07:55:37.178Z,77.44
2018-09-03T07:56:40.482Z,76.71
2018-09-03T07:57:43.910Z,76.71
2018-09-03T07:58:46.881Z,76.39
2018-09-03T07:59:49.752Z,75.14
2018-09-03T08:00:54.717Z,75.31
2018-09-03T08:01:58.022Z,75.66
2018-09-03T08:03:01.596Z,75.40
2018-09-03T08:04:05.666Z,75.39
2018-09-03T08:05:09.332Z,74.73
2018-09-03T08:06:14.080Z,75.31
2018-09-03T08:07:17.050Z,75.35
2018-09-03T08:08:20.032Z,75.57
2018-09-03T08:09:23.706Z,76.34
2018-09-03T08:10:27.036Z,75.87
2018-09-03T08:11:31.673Z,75.47
2018-09-03T08:12:34.985Z,74.91
2018-09-03T08:13:41.236Z,74.82
2018-09-03T08:14:44.885Z,74.29
2018-09-03T08:15:49.038Z,74.47
2018-09-03T08:16:53.752Z,73.85
2018-09-03T08:17:56.729Z,74.29
2018-09-03T08:18:59.746Z,74.30
2018-09-03T08:20:02.836Z,73.90
2018-09-03T08:21:07.101Z,74.55
2018-09-03T08:22:10.631Z,74.03
2018-09-03T08:23:13.874Z,74.68
2018-09-03T08:24:17.358Z,75.24
2018-09-03T08:25:20.541Z,74.11
2018-09-03T08:26:25.577Z,74.26
2018-09-03T08:27:28.488Z,73.62
2018-09-03T08:28:31.377Z,72.96
2018-09-03T08:29:36.699Z,73.91
2018-09-03T08:30:40.277Z,73.13
2018-09-03T08:31:44.213Z,72.84
2018-09-03T08:32:48.301Z,73.39
2018-09-03T08:33:54.198Z,74.76
2018-09-03T08:34:57.711Z,74.03
2018-09-03T08:36:00.866Z,73.63
2018-09-03T08:37:03.973Z,73.71
2018-09-03T08:38:06.881Z,72.96
2018-09-03T08:39:12.257Z,72.69
2018-09-03T08:40:15.241Z,72.63
2018-09-03T08:41:22.216Z,72.18
2018-09-03T08:42:25.724Z,72.10
2018-09-03T08:43:28.668Z,72.62
2018-09-03T08:44:31.560Z,72.17
2018-09-03T08:45:35.015Z,72.37
2018-09-03T08:46:38.793Z,71.75
2018-09-03T08:47:42.503Z,72.05
2018-09-03T08:48:45.716Z,71.71
2018-09-03T08:49:49.542Z,71.47
2018-09-03T08:50:53.775Z,71.77
2018-09-03T08:51:59.751Z,71.90
2018-09-03T08:53:04.828Z,72.05
2018-09-03T08:54:08.541Z,71.11
2018-09-03T08:55:13.445Z,71.96
2018-09-03T08:56:16.514Z,72.08
2018-09-03T08:57:19.600Z,72.86
2018-09-03T08:58:23.329Z,71.99
2018-09-03T08:59:32.488Z,72.33
2018-09-03T09:00:38.639Z,71.39
2018-09-03T09:01:46.576Z,71.48
2018-09-03T09:02:49.604Z,72.19
2018-09-03T09:03:53.570Z,71.04
2018-09-03T09:04:58.605Z,70.32
2018-09-03T09:06:01.567Z,67.78
2018-09-03T09:07:07.837Z,67.52
2018-09-03T09:08:12.685Z,67.58
2018-09-03T09:09:16.061Z,67.76
2018-09-03T09:10:24.049Z,67.48
2018-09-03T09:11:27.182Z,67.60
2018-09-03T09:12:31.317Z,69.54
2018-09-03T09:13:36.075Z,69.21
2018-09-03T09:14:39.709Z,68.94
2018-09-03T09:15:42.824Z,69.57
2018-09-03T09:16:45.763Z,69.29
2018-09-03T09:17:49.514Z,69.76
2018-09-03T09:18:52.420Z,69.26
2018-09-03T09:19:55.269Z,70.10
2018-09-03T09:20:59.334Z,69.30
2018-09-03T09:22:02.575Z,70.55
2018-09-03T09:23:05.747Z,70.82
2018-09-03T09:24:08.675Z,70.81
2018-09-03T09:25:11.790Z,70.14
2018-09-03T09:26:15.796Z,70.73
2018-09-03T09:27:20.062Z,70.97
2018-09-03T09:28:23.625Z,71.14
2018-09-03T09:29:29.106Z,70.30
2018-09-03T09:30:35.042Z,70.54
2018-09-03T09:31:38.789Z,69.46
2018-09-03T09:32:41.753Z,70.06
2018-09-03T09:33:45.279Z,70.11
2018-09-03T09:34:49.570Z,70.30
2018-09-03T09:35:53.667Z,70.19
2018-09-03T09:36:56.647Z,70.16
2018-09-03T09:37:59.818Z,70.50
2018-09-03T09:39:04.924Z,70.92
2018-09-03T09:40:09.959Z,70.54
2018-09-03T09:41:13.906Z,71.03
2018-09-03T09:42:18.593Z,71.40
2018-09-03T09:43:21.736Z,71.19
2018-09-03T09:44:25.770Z,70.35
2018-09-03T09:45:35.006Z,70.55
2018-09-03T09:46:37.881Z,70.66
2018-09-03T09:47:41.495Z,70.68
2018-09-03T09:48:44.460Z,70.02
2018-09-03T09:49:47.594Z,69.98
2018-09-03T09:50:50.486Z,70.58
2018-09-03T09:51:56.536Z,70.75
2018-09-03T09:52:59.460Z,71.57
2018-09-03T09:54:03.104Z,70.97
2018-09-03T09:55:08.623Z,71.86
2018-09-03T09:56:12.367Z,71.08
2018-09-03T09:57:16.210Z,70.56
2018-09-03T09:58:19.539Z,71.08
2018-09-03T09:59:22.448Z,70.94
2018-09-03T10:00:30.324Z,71.04
2018-09-03T10:01:36.777Z,70.98
2018-09-03T10:02:40.890Z,70.72
2018-09-03T10:03:47.094Z,69.89
2018-09-03T10:04:50.334Z,70.43
2018-09-03T10:05:54.495Z,71.40
2018-09-03T10:06:57.849Z,70.60
2018-09-03T10:08:00.957Z,70.80
2018-09-03T10:09:03.966Z,70.56
2018-09-03T10:10:12.636Z,71.08
2018-09-03T10:11:18.370Z,70.92
2018-09-03T10:12:25.171Z,70.98
2018-09-03T10:13:29.281Z,70.66
2018-09-03T10:14:32.446Z,70.88
2018-09-03T10:15:35.383Z,70.49
2018-09-03T10:16:40.317Z,70.05
2018-09-03T10:17:43.224Z,69.89
2018-09-03T10:18:46.104Z,70.36
2018-09-03T10:19:48.988Z,69.90
2018-09-03T10:20:51.859Z,70.55
2018-09-03T10:21:55.340Z,70.68
2018-09-03T10:22:58.490Z,70.51
2018-09-03T10:24:02.499Z,70.76
2018-09-03T10:25:05.578Z,69.75
2018-09-03T10:26:08.756Z,69.78
2018-09-03T10:27:12.798Z,70.07
2018-09-03T10:28:15.701Z,70.71
2018-09-03T10:29:19.030Z,69.76
2018-09-03T10:30:21.893Z,70.04
2018-09-03T10:32:41.113Z,69.83
2018-09-03T10:33:44.990Z,70.67
2018-09-03T10:34:47.857Z,70.21
2018-09-03T10:35:51.073Z,70.56
2018-09-03T10:36:55.283Z,71.40
2018-09-03T10:37:58.226Z,70.50
2018-09-03T10:39:02.271Z,70.90
2018-09-03T10:40:07.396Z,70.81
2018-09-03T10:41:12.298Z,70.46
2018-09-03T10:42:21.168Z,70.56
2018-09-03T10:43:26.557Z,70.67
2018-09-03T10:44:31.787Z,70.40
2018-09-03T10:45:35.399Z,70.35
2018-09-03T10:46:44.482Z,70.16
2018-09-03T10:47:48.744Z,70.23
2018-09-03T10:48:54.774Z,70.17
2018-09-03T10:49:57.681Z,70.09
2018-09-03T10:51:03.594Z,70.38
2018-09-03T10:52:06.783Z,70.11
2018-09-03T10:53:11.328Z,70.46
2018-09-03T10:54:14.995Z,70.24
2018-09-03T10:55:18.451Z,70.46
2018-09-03T10:56:23.311Z,70.82
2018-09-03T10:57:26.499Z,70.26
2018-09-03T10:58:33.270Z,70.58
2018-09-03T10:59:37.423Z,70.74
2018-09-03T11:00:40.841Z,70.41
2018-09-03T11:01:43.752Z,70.63
2018-09-03T11:02:46.641Z,70.12
2018-09-03T11:03:49.641Z,70.64
2018-09-03T11:04:53.787Z,70.19
2018-09-03T11:06:00.119Z,71.40
2018-09-03T11:07:04.303Z,71.39
2018-09-03T11:08:07.192Z,71.44
2018-09-03T11:09:11.346Z,70.75
2018-09-03T11:10:16.086Z,71.54
2018-09-03T11:11:20.190Z,71.20
2018-09-03T11:12:25.671Z,70.62
2018-09-03T11:13:29.737Z,71.34
2018-09-03T11:14:32.642Z,70.67
2018-09-03T11:15:39.132Z,71.29
2018-09-03T11:16:42.814Z,71.25
2018-09-03T11:17:46.689Z,71.31
2018-09-03T11:18:49.579Z,71.36
2018-09-03T11:19:59.509Z,70.35
2018-09-03T11:21:04.229Z,70.50
2018-09-03T11:22:08.914Z,71.06
2018-09-03T11:23:12.722Z,70.79
2018-09-03T11:24:15.839Z,70.90
2018-09-03T11:25:20.049Z,70.07
2018-09-03T11:26:25.039Z,70.47
2018-09-03T11:27:28.062Z,71.00
2018-09-03T11:28:31.782Z,71.19
2018-09-03T11:29:37.993Z,71.13
2018-09-03T11:30:42.644Z,70.79
2018-09-03T11:31:45.522Z,71.08
2018-09-03T11:32:53.922Z,71.77
2018-09-03T11:33:57.633Z,71.04
2018-09-03T11:35:05.563Z,72.14
2018-09-03T11:36:11.253Z,71.78
2018-09-03T11:37:16.124Z,72.01
2018-09-03T11:38:21.370Z,71.34
2018-09-03T11:39:24.519Z,71.18
2018-09-03T11:40:27.869Z,71.94
2018-09-03T11:41:31.104Z,71.39
2018-09-03T11:42:33.966Z,71.11
2018-09-03T11:43:37.682Z,71.48
2018-09-03T11:44:40.545Z,71.75
2018-09-03T11:45:44.453Z,71.22
2018-09-03T11:46:47.371Z,71.35
2018-09-03T11:47:50.998Z,71.39
2018-09-03T11:48:54.192Z,71.23
2018-09-03T11:49:58.042Z,71.17
2018-09-03T11:51:01.717Z,71.44
2018-09-03T11:52:06.544Z,71.74
2018-09-03T11:53:09.584Z,71.81
2018-09-03T11:54:12.477Z,71.08
2018-09-03T11:55:16.522Z,71.06
2018-09-03T11:56:19.377Z,71.05
2018-09-03T11:57:22.675Z,71.46
2018-09-03T11:58:30.656Z,71.32
2018-09-03T11:59:33.770Z,71.24
2018-09-03T12:00:37.735Z,71.42
2018-09-03T12:01:41.700Z,71.53
2018-09-03T12:02:44.587Z,71.50
2018-09-03T12:03:47.889Z,72.13
2018-09-03T12:04:51.689Z,72.63
2018-09-03T12:05:54.946Z,72.69
2018-09-03T12:06:58.234Z,73.11
2018-09-03T12:08:01.866Z,72.72
2018-09-03T12:09:06.125Z,72.00
2018-09-03T12:10:09.609Z,72.84
2018-09-03T12:11:14.043Z,72.32
2018-09-03T12:12:16.965Z,72.47
2018-09-03T12:13:19.838Z,73.24
2018-09-03T12:14:32.170Z,72.48
2018-09-03T12:15:44.642Z,72.50
2018-09-03T12:16:47.869Z,72.50
2018-09-03T12:17:52.841Z,73.39
2018-09-03T12:18:57.948Z,72.97
2018-09-03T12:20:02.498Z,73.27
2018-09-03T12:21:06.693Z,73.62
2018-09-03T12:22:10.087Z,72.78
2018-09-03T12:23:13.954Z,72.77
2018-09-03T12:24:18.107Z,72.97
2018-09-03T12:25:22.299Z,73.13
2018-09-03T12:27:43.534Z,72.22
2018-09-03T12:28:46.646Z,72.89
2018-09-03T12:29:49.788Z,72.30
2018-09-03T12:30:52.639Z,73.05
2018-09-03T12:31:57.188Z,73.59
2018-09-03T12:33:02.919Z,72.91
2018-09-03T12:34:07.625Z,73.11
2018-09-03T12:35:10.492Z,73.53
2018-09-03T12:36:14.221Z,73.27
2018-09-03T12:37:19.520Z,73.84
2018-09-03T12:38:24.030Z,73.04
2018-09-03T12:39:28.269Z,73.47
2018-09-03T12:40:31.165Z,73.92
2018-09-03T12:41:37.730Z,74.40
2018-09-03T12:42:41.164Z,73.62
2018-09-03T12:43:44.100Z,73.66
2018-09-03T12:44:47.579Z,73.55
2018-09-03T12:45:55.664Z,73.43
2018-09-03T12:46:59.220Z,73.51
2018-09-03T12:48:02.409Z,73.97
2018-09-03T12:49:07.562Z,73.91
2018-09-03T12:50:11.126Z,73.42
2018-09-03T12:51:14.019Z,74.17
2018-09-03T12:52:17.561Z,73.65
2018-09-03T12:53:24.006Z,73.99
2018-09-03T12:54:26.913Z,73.94
2018-09-03T12:55:29.844Z,74.24
2018-09-03T12:56:32.924Z,74.44
2018-09-03T12:57:36.575Z,73.90
2018-09-03T12:58:40.443Z,74.36
2018-09-03T12:59:45.545Z,73.33
2018-09-03T13:00:48.425Z,74.06
2018-09-03T13:01:52.107Z,73.86
2018-09-03T13:02:56.189Z,74.09
2018-09-03T13:03:59.079Z,74.05
2018-09-03T13:05:03.726Z,74.00
2018-09-03T13:06:07.009Z,73.62
2018-09-03T13:07:10.943Z,73.07
2018-09-03T13:08:13.817Z,73.06
2018-09-03T13:09:16.949Z,73.79
2018-09-03T13:10:20.483Z,73.05
2018-09-03T13:11:25.872Z,73.22
2018-09-03T13:12:29.803Z,74.44
2018-09-03T13:13:32.945Z,73.39
2018-09-03T13:14:36.726Z,73.81
2018-09-03T13:15:40.158Z,73.62
2018-09-03T13:16:43.125Z,73.76
2018-09-03T13:17:46.835Z,73.90
2018-09-03T13:18:51.686Z,73.69
2018-09-03T13:19:56.620Z,74.59
2018-09-03T13:20:59.504Z,74.82
2018-09-03T13:22:02.429Z,74.57
2018-09-03T13:23:05.465Z,74.35
2018-09-03T13:24:08.475Z,74.00
2018-09-03T13:25:16.177Z,74.24
2018-09-03T13:26:19.050Z,74.62
2018-09-03T13:27:23.572Z,75.04
2018-09-03T13:28:29.677Z,74.85
2018-09-03T13:29:33.634Z,75.23
2018-09-03T13:30:38.703Z,74.27
2018-09-03T13:31:41.900Z,74.37
2018-09-03T13:32:44.817Z,74.57
2018-09-03T13:33:49.210Z,75.29
2018-09-03T13:34:52.657Z,75.08
2018-09-03T13:35:55.779Z,74.80
2018-09-03T13:36:58.693Z,75.05
2018-09-03T13:38:03.507Z,74.90
2018-09-03T13:39:06.530Z,74.85
2018-09-03T13:40:09.971Z,75.26
2018-09-03T13:41:13.538Z,75.03
2018-09-03T13:42:18.093Z,75.26
2018-09-03T13:43:21.044Z,76.00
2018-09-03T13:44:25.407Z,75.99
2018-09-03T13:45:28.840Z,75.63